KSME

Details ICAO KSME (SME)
Name SOMERSET PULASKI CO J T WILSON FLD
Region United States
Timezone America/New_York (UTC-5.0)
Plans Departing 6
Arriving 6
Stats Elevation 927 ft / 283 m (AMSL)
Location 37.054808° -84.614250°
Runways 1
Magnetic Variation 5.458° W
Sunrise 2017-12-15 12:46:11 UTC / 2017-12-15 07:46:11 Local
Sunset 2017-12-15 22:24:03 UTC / 2017-12-15 17:24:03 Local
Advertisement - Login to hide

Runways

ID Width Length Bearing (true) Bearing (mag) Surface Threshold Offset Overrun Length
05 100 ft / 30 m 5,802 ft / 1,768 m 42.88° 48.34° Asphalt 0 ft / 0 m 0 ft / 0 m
23 100 ft / 30 m 5,802 ft / 1,768 m 222.89° 228.35° Asphalt 300 ft / 91 m 0 ft / 0 m

Map

Weather


0- 5 10 15 20 25 30 35+ Temperature / ° C

Clouds and Precipitation
Forecast for 2017-12-16 00:00 UTC. Updated an hour ago

Ground ~20,000 ft ~40,000 ft Winds

METAR

KSME 152215Z AUTO 25006KT 10SM OVC049 00/M06 A3013 RMK AO2

TAF

KSME 152024Z 1520/1618 27009G18KT P6SM SCT040 FM160000 VRB03KT P6SM SCT040 FM160700 VRB04KT P6SM FEW250

Frequencies

Recorded 124.85 MHz AWOS 3
Unicom 122.80 MHz CTAF/UNICOM
Warning: Do not use this data for real-world aviation or navigation. No guarantee of current accuracy is given.